ADDS TAF Board (Experimental) INFO Settings
IDs: Format: Expanded Condensed

KPHX - Phoenix/Sky Harbor, AZ, US

Issued at 1504 UTC 01 May 2016
Updated at: 1724 UTC 01 May 2016
Time1651Z 01/18Z 01/19Z 01/20Z 01/21Z 01/22Z 01/23Z 02/00Z 02/01Z 02/02Z 02/03Z 02/04Z 02/05Z 02/06Z
Type OBS PRVL PRVL PRVL PRVL PRVL PRVL PRVL PRVL PRVL PRVL PRVL PRVL PRVL
VIS 10 >6 >6 >6 >6 >6 >6 >6 >6 >6 >6 >6 >6 >6
CIG 100 100 100 100 100 -- -- -- -- -- -- -- -- --
Cover BKN BKN BKN BKN BKN SCT SCT SCT FEW FEW FEW FEW FEW SKC
FltCat VFR VFR VFR VFR VFR VFR VFR VFR VFR VFR VFR VFR VFR VFR
WX -- -- -- -- -- -- -- -- -- -- -- -- -- --
WDir 140 120 120 120 120 240 240 240 340 340 340 340 340 100
WSpd 7 7 7 7 7 6 6 6 5 5 5 5 5 6
WGst -- -- -- -- -- -- -- -- -- -- -- -- -- --
R07/25
XWnd -5 -4 -4 -4 -4 -3 -3 -3 5 5 5 5 5 -1
HWnd 4 6 6 6 6 -5 -5 -5 -2 -2 -2 -2 -2 6
R08/26
XWnd -5 -4 -4 -4 -4 -3 -3 -3 5 5 5 5 5 -1
HWnd 4 6 6 6 6 -5 -5 -5 -2 -2 -2 -2 -2 6

NOTE: TEMPO conditions in [brackets]. Keep in mind TEMPO conditions might be better (lower impact) than prevailing conditions.

Raw TAF
KPHX 011504Z 0115/0212 12007KT P6SM BKN100
  FM012200 24006KT P6SM SCT080
  FM020100 34005KT P6SM FEW100
  FM020600 10006KT P6SM SKC


Raw METAR
KPHX 011651Z 14007KT 10SM FEW060 SCT075 BKN100 BKN200 21/08 A2987 RMK AO2 RAB1557E06 SLP103 P0000 T02110083
KPHX 011551Z 13007KT 10SM BKN090 BKN110 BKN140 18/09 A2986 RMK AO2 SLP101 T01780089
KPHX 011451Z 09009KT 10SM BKN090 BKN110 BKN140 17/08 A2984 RMK AO2 SLP094 T01720083 53027

METAR Board
Radar Display
Forecast Discussion

TAF Board Legend

Potential Impact
Threat None Slight Moderate High
Visibility (sm) ≥5.1 5.1>X≥3 3>X≥1 <1
Ceiling (100 ft) ≥30.1 30.1>X≥10 10>X≥5 <5
Wind Speed (kt) <10 10≤X<20 20≤X<30 ≥30
Wind Gust (kt) <15 15≤X<25 25≤X<35 ≥35
Weather No Wx Reported VCTS,-TS,-FZRA,SN TS,FZRA +TS,+FZRA,+SN